Time;durP1;ratioP1;P1;durP2;ratioP2;P2;SDS_P1;SDS_P2;PMS_P1;PMS_P2;Temp;Humidity;BMP_temperature;BMP_pressure;BME280_temperature;BME280_humidity;BME280_pressure;Samples;Min_cycle;Max_cycle;Signal;HPM_P1;HPM_P2
2023/01/08 00:00:51;;;;;;;7.88;4.82;;;10.40;99.90;;;;;;5041392;28;20080;-78
2023/01/08 00:03:17;;;;;;;7.03;4.93;;;10.30;99.90;;;;;;5049888;28;20029;-78
2023/01/08 00:05:43;;;;;;;9.35;4.55;;;10.30;99.90;;;;;;5044830;28;20490;-78
2023/01/08 00:08:09;;;;;;;6.50;4.60;;;10.30;99.90;;;;;;5045276;28;20049;-78
2023/01/08 00:10:36;;;;;;;5.78;4.47;;;10.40;99.90;;;;;;5041532;28;20223;-77
2023/01/08 00:13:02;;;;;;;5.68;4.45;;;10.40;99.90;;;;;;5046785;28;20526;-77
2023/01/08 00:15:29;;;;;;;6.70;5.20;;;10.30;99.90;;;;;;5046493;28;20116;-77
2023/01/08 00:17:55;;;;;;;6.68;4.22;;;10.30;99.90;;;;;;5050741;28;20021;-77
2023/01/08 00:20:21;;;;;;;8.60;3.65;;;10.20;99.90;;;;;;5051304;28;20112;-77
2023/01/08 00:22:48;;;;;;;4.32;3.70;;;10.20;99.90;;;;;;5051298;28;20109;-77
2023/01/08 00:25:14;;;;;;;4.25;3.45;;;10.20;99.90;;;;;;5050813;28;20013;-77
2023/01/08 00:27:40;;;;;;;4.82;3.85;;;10.20;99.90;;;;;;5052248;28;20021;-77
2023/01/08 00:30:06;;;;;;;6.00;4.32;;;10.20;99.90;;;;;;5044847;28;20052;-78
2023/01/08 00:32:31;;;;;;;4.35;3.50;;;10.10;99.90;;;;;;5037280;28;20128;-78
2023/01/08 00:34:57;;;;;;;4.85;3.90;;;10.00;99.90;;;;;;5053459;28;20108;-78
2023/01/08 00:37:23;;;;;;;5.32;3.53;;;10.00;99.90;;;;;;5053005;28;20080;-78
2023/01/08 00:39:48;;;;;;;5.22;4.15;;;10.00;99.90;;;;;;5053570;28;20071;-78
2023/01/08 00:42:14;;;;;;;7.22;3.92;;;10.00;99.90;;;;;;5053478;28;20399;-78
2023/01/08 00:44:40;;;;;;;4.47;2.95;;;10.00;99.90;;;;;;5065214;28;20021;-78
2023/01/08 00:47:05;;;;;;;6.80;3.90;;;10.00;99.90;;;;;;5053266;28;20056;-78
2023/01/08 00:49:31;;;;;;;4.93;3.78;;;9.90;99.90;;;;;;5063970;28;20025;-78
2023/01/08 00:51:57;;;;;;;9.13;4.88;;;10.00;99.90;;;;;;5038905;28;20490;-78
2023/01/08 00:54:22;;;;;;;8.25;4.93;;;9.90;99.90;;;;;;5050132;28;20028;-78
2023/01/08 00:56:48;;;;;;;7.05;4.63;;;9.90;99.90;;;;;;5048574;28;20036;-78
2023/01/08 00:59:14;;;;;;;5.20;4.30;;;9.90;99.90;;;;;;5060420;28;20100;-78
2023/01/08 01:01:39;;;;;;;8.10;4.78;;;9.80;99.90;;;;;;5052822;28;20479;-78
2023/01/08 01:04:05;;;;;;;8.95;4.57;;;9.90;99.90;;;;;;5059293;28;20017;-78
2023/01/08 01:06:31;;;;;;;5.68;4.38;;;9.90;99.90;;;;;;5052600;28;20130;-79
2023/01/08 01:08:56;;;;;;;5.00;3.92;;;9.90;99.90;;;;;;5056707;28;20021;-78
2023/01/08 01:11:25;;;;;;;5.43;4.20;;;9.80;99.90;;;;;;5049019;28;20427;-78
2023/01/08 01:13:51;;;;;;;5.18;3.88;;;9.70;99.90;;;;;;5055751;28;20023;-78
2023/01/08 01:16:17;;;;;;;5.00;4.10;;;9.60;99.90;;;;;;5052682;28;20052;-78
2023/01/08 01:18:43;;;;;;;5.22;3.72;;;9.60;99.90;;;;;;5052369;28;20060;-78
2023/01/08 01:21:30;;;;;;;6.78;4.15;;;9.60;99.90;;;;;;5052309;28;20048;-78
2023/01/08 01:23:59;;;;;;;5.55;3.88;;;9.70;99.90;;;;;;5050933;28;20029;-79
2023/01/08 01:26:25;;;;;;;6.28;4.47;;;9.70;99.90;;;;;;5047669;28;20041;-79
2023/01/08 01:28:53;;;;;;;7.10;4.47;;;9.70;99.90;;;;;;5043522;28;20049;-78
2023/01/08 01:31:20;;;;;;;8.80;4.78;;;9.70;99.90;;;;;;5052350;28;20570;-78
2023/01/08 01:33:46;;;;;;;5.95;4.47;;;9.70;99.90;;;;;;5051318;28;20040;-78
2023/01/08 01:36:13;;;;;;;8.80;5.20;;;9.80;99.90;;;;;;5051944;28;20025;-78
2023/01/08 01:38:43;;;;;;;9.85;4.97;;;9.80;99.90;;;;;;5060227;28;20074;-78
2023/01/08 01:41:25;;;;;;;6.10;4.10;;;9.80;99.90;;;;;;5052971;28;20059;-78
2023/01/08 01:43:51;;;;;;;6.10;4.63;;;9.90;99.90;;;;;;5052253;28;20113;-78
2023/01/08 01:46:20;;;;;;;7.63;4.85;;;9.80;99.90;;;;;;5044127;28;20112;-78
2023/01/08 01:48:49;;;;;;;7.35;4.50;;;9.80;99.90;;;;;;5054217;28;20031;-78
2023/01/08 01:51:14;;;;;;;7.18;4.85;;;9.70;99.90;;;;;;5052156;28;20540;-78
2023/01/08 01:53:40;;;;;;;7.78;5.38;;;9.80;99.90;;;;;;5056798;28;20029;-79
2023/01/08 01:56:07;;;;;;;9.18;5.13;;;9.80;99.90;;;;;;5052071;28;20388;-78
2023/01/08 01:58:32;;;;;;;6.72;4.72;;;9.80;99.90;;;;;;5055860;28;20035;-78
2023/01/08 02:01:03;;;;;;;7.05;4.95;;;9.80;99.90;;;;;;5050698;28;20394;-78
2023/01/08 02:03:33;;;;;;;6.13;4.88;;;9.80;99.90;;;;;;5054108;28;20025;-78
2023/01/08 02:06:02;;;;;;;9.93;5.22;;;9.80;99.90;;;;;;5051955;28;20026;-78
2023/01/08 02:08:55;;;;;;;8.27;5.55;;;9.80;99.90;;;;;;5065352;28;20017;-78
2023/01/08 02:12:16;;;;;;;8.48;5.25;;;9.80;99.90;;;;;;5051901;28;20167;-78
2023/01/08 02:14:57;;;;;;;8.53;5.00;;;9.80;99.90;;;;;;5061348;28;20037;-79
2023/01/08 02:17:33;;;;;;;7.23;5.07;;;9.90;99.90;;;;;;5050287;28;20021;-78
2023/01/08 02:20:06;;;;;;;7.88;5.75;;;9.90;99.90;;;;;;5063238;28;20290;-78
2023/01/08 02:22:46;;;;;;;7.85;5.45;;;9.90;99.90;;;;;;5051462;28;20037;-78
2023/01/08 02:25:42;;;;;;;7.97;5.57;;;9.90;99.90;;;;;;5061066;28;20037;-78
2023/01/08 02:28:13;;;;;;;8.32;5.50;;;9.90;99.90;;;;;;5052464;28;20256;-79
2023/01/08 02:30:40;;;;;;;9.93;5.30;;;10.00;99.90;;;;;;5058539;28;20045;-79
2023/01/08 02:33:06;;;;;;;8.15;4.85;;;9.90;99.90;;;;;;5047436;28;20076;-79
2023/01/08 02:35:40;;;;;;;6.72;5.03;;;9.80;99.90;;;;;;5051104;28;20064;-79
2023/01/08 02:38:11;;;;;;;6.85;5.00;;;9.70;99.90;;;;;;5036811;28;20021;-79
2023/01/08 02:40:51;;;;;;;8.30;5.38;;;9.80;99.90;;;;;;5049433;28;20544;-79
2023/01/08 02:43:25;;;;;;;7.32;4.93;;;9.80;99.90;;;;;;5051189;28;20104;-79
2023/01/08 02:45:56;;;;;;;8.38;4.97;;;9.90;99.90;;;;;;5038599;28;20021;-79
2023/01/08 02:48:30;;;;;;;6.35;4.45;;;9.90;99.90;;;;;;5049799;28;20033;-79
2023/01/08 02:51:02;;;;;;;7.70;4.70;;;9.90;99.90;;;;;;5051071;28;20031;-79
2023/01/08 02:53:33;;;;;;;8.68;4.68;;;10.00;99.90;;;;;;5049480;28;20025;-79
2023/01/08 02:56:05;;;;;;;7.43;4.80;;;10.00;99.90;;;;;;5052040;28;20096;-79
2023/01/08 02:58:33;;;;;;;6.88;4.85;;;9.90;99.90;;;;;;5054665;28;20040;-79
2023/01/08 03:01:03;;;;;;;6.45;4.65;;;10.00;99.90;;;;;;5050781;28;20017;-79
2023/01/08 03:03:30;;;;;;;6.53;4.47;;;9.90;99.90;;;;;;5052554;28;20108;-79
2023/01/08 03:06:06;;;;;;;7.63;4.55;;;9.90;99.90;;;;;;5061056;28;20021;-79
2023/01/08 03:08:36;;;;;;;6.93;4.28;;;9.90;99.90;;;;;;5058125;28;20056;-79
2023/01/08 03:11:12;;;;;;;5.32;4.15;;;10.00;99.90;;;;;;5055765;28;20021;-79
2023/01/08 03:13:52;;;;;;;4.82;3.65;;;10.00;99.90;;;;;;5052989;28;20021;-79
2023/01/08 03:16:24;;;;;;;6.77;4.53;;;10.00;99.90;;;;;;5055975;28;20029;-79
2023/01/08 03:19:17;;;;;;;6.22;3.83;;;10.10;99.90;;;;;;5053797;28;20293;-79
2023/01/08 03:21:44;;;;;;;6.18;3.90;;;10.00;99.90;;;;;;5050658;28;20040;-80
2023/01/08 03:24:13;;;;;;;5.78;3.90;;;10.00;99.90;;;;;;5065730;28;20025;-80
2023/01/08 03:26:42;;;;;;;6.57;4.20;;;10.00;99.90;;;;;;5050513;28;20056;-80
2023/01/08 03:29:11;;;;;;;7.43;4.00;;;10.00;99.90;;;;;;5050198;28;20064;-80
2023/01/08 03:31:38;;;;;;;5.68;3.90;;;10.00;99.90;;;;;;5050306;28;20029;-80
2023/01/08 03:34:05;;;;;;;4.90;3.40;;;10.00;99.90;;;;;;5050074;28;20021;-79
2023/01/08 03:36:32;;;;;;;5.53;4.10;;;10.10;99.90;;;;;;5050330;28;20068;-80
2023/01/08 03:39:03;;;;;;;4.53;3.65;;;10.00;99.90;;;;;;5053208;28;20028;-80
2023/01/08 03:41:31;;;;;;;4.93;3.65;;;10.00;99.90;;;;;;5050394;28;20021;-80
2023/01/08 03:43:57;;;;;;;4.57;3.55;;;10.00;99.90;;;;;;5050073;28;20025;-80
2023/01/08 03:46:30;;;;;;;7.88;3.88;;;10.00;99.90;;;;;;5050427;28;20090;-80
2023/01/08 03:48:58;;;;;;;6.88;4.18;;;9.90;99.90;;;;;;5050443;28;20033;-82
2023/01/08 03:51:24;;;;;;;6.00;3.88;;;9.90;99.90;;;;;;5050171;28;20025;-82
2023/01/08 03:53:53;;;;;;;5.47;3.70;;;9.90;99.90;;;;;;5055111;28;20029;-81
2023/01/08 03:56:19;;;;;;;6.43;4.07;;;9.80;99.90;;;;;;5064198;28;20047;-81
2023/01/08 03:58:45;;;;;;;6.68;4.10;;;9.80;99.90;;;;;;5054145;28;20483;-81
2023/01/08 04:01:10;;;;;;;5.53;4.03;;;9.70;99.90;;;;;;5054011;28;20013;-81
2023/01/08 04:03:36;;;;;;;6.88;4.57;;;9.70;99.90;;;;;;5054033;28;20032;-81
2023/01/08 04:06:02;;;;;;;7.40;4.75;;;9.70;99.90;;;;;;5053871;28;20100;-81
2023/01/08 04:08:27;;;;;;;5.95;4.40;;;9.80;99.90;;;;;;5054030;28;20596;-81
2023/01/08 04:10:53;;;;;;;7.20;3.90;;;9.80;99.90;;;;;;5060864;28;20509;-81
2023/01/08 04:13:19;;;;;;;5.15;3.72;;;9.70;99.90;;;;;;5050992;28;20025;-81
2023/01/08 04:15:51;;;;;;;5.95;4.47;;;9.70;99.90;;;;;;5050890;28;20482;-81
2023/01/08 04:18:17;;;;;;;6.38;4.43;;;9.70;99.90;;;;;;5038765;28;20021;-81
2023/01/08 04:20:47;;;;;;;5.85;4.15;;;9.80;99.90;;;;;;5059967;28;20025;-82
2023/01/08 04:23:13;;;;;;;5.28;3.92;;;9.80;99.90;;;;;;5053666;28;20021;-82
2023/01/08 04:25:39;;;;;;;4.63;3.97;;;9.80;99.90;;;;;;5057372;28;20017;-81
2023/01/08 04:28:04;;;;;;;4.72;3.47;;;9.70;99.90;;;;;;5052134;28;20025;-81
2023/01/08 04:30:30;;;;;;;6.20;3.58;;;9.70;99.90;;;;;;5055907;28;20132;-81
2023/01/08 04:32:56;;;;;;;4.70;3.90;;;9.70;99.90;;;;;;5053315;28;20593;-81
2023/01/08 04:35:21;;;;;;;5.78;3.80;;;9.70;99.90;;;;;;5054260;28;20516;-81
2023/01/08 04:37:47;;;;;;;5.95;3.63;;;9.70;99.90;;;;;;5053411;28;20030;-81
2023/01/08 04:40:13;;;;;;;4.63;3.20;;;9.70;99.90;;;;;;5064237;28;20563;-81
2023/01/08 04:42:39;;;;;;;5.72;3.95;;;9.70;99.90;;;;;;5054929;28;20013;-81
2023/01/08 04:45:06;;;;;;;3.90;3.47;;;9.70;99.90;;;;;;5051433;28;20525;-81
2023/01/08 04:47:32;;;;;;;5.82;3.55;;;9.70;99.90;;;;;;5052330;28;20272;-81
2023/01/08 04:49:58;;;;;;;5.70;3.20;;;9.70;99.90;;;;;;5061945;28;20486;-81
2023/01/08 04:52:24;;;;;;;4.82;3.42;;;9.60;99.90;;;;;;5054364;28;20033;-81
2023/01/08 04:54:49;;;;;;;5.07;3.47;;;9.40;99.90;;;;;;5058784;28;20024;-81
2023/01/08 04:57:15;;;;;;;4.88;3.90;;;9.50;99.90;;;;;;5054534;28;20025;-81
2023/01/08 04:59:41;;;;;;;4.90;3.47;;;9.50;99.90;;;;;;5059011;28;20021;-81
2023/01/08 05:02:06;;;;;;;5.18;3.75;;;9.50;99.90;;;;;;5054237;28;20109;-81
2023/01/08 05:04:32;;;;;;;5.53;3.58;;;9.50;99.90;;;;;;5056462;28;20498;-81
2023/01/08 05:06:58;;;;;;;6.78;4.32;;;9.50;99.90;;;;;;5064593;28;20494;-81
2023/01/08 05:09:24;;;;;;;5.40;4.15;;;9.40;99.90;;;;;;5044100;28;20711;-81
2023/01/08 05:11:49;;;;;;;7.25;4.53;;;9.40;99.90;;;;;;5052437;28;20442;-81
2023/01/08 05:14:15;;;;;;;6.07;4.15;;;9.50;99.90;;;;;;5052759;28;20491;-81
2023/01/08 05:16:41;;;;;;;5.45;4.55;;;9.50;99.90;;;;;;5053052;28;20033;-82
2023/01/08 05:19:06;;;;;;;5.82;4.00;;;9.60;99.90;;;;;;5052552;28;20027;-82
2023/01/08 05:21:32;;;;;;;6.13;4.75;;;9.70;99.90;;;;;;5047755;28;20038;-82
2023/01/08 05:23:58;;;;;;;4.57;3.75;;;9.60;99.90;;;;;;5044793;28;20017;-82
2023/01/08 05:26:24;;;;;;;4.28;3.85;;;9.60;99.90;;;;;;5047830;28;20068;-81
2023/01/08 05:28:50;;;;;;;6.40;3.63;;;9.60;99.90;;;;;;5032618;28;20040;-82
2023/01/08 05:31:16;;;;;;;6.30;4.32;;;9.50;99.90;;;;;;5050171;28;20040;-81
2023/01/08 05:33:42;;;;;;;6.55;4.20;;;9.60;99.90;;;;;;5052581;28;20070;-81
2023/01/08 05:36:09;;;;;;;5.25;3.97;;;9.60;99.90;;;;;;5064039;28;20036;-81
2023/01/08 05:38:35;;;;;;;6.20;4.43;;;9.70;99.90;;;;;;5052525;28;20112;-81
2023/01/08 05:41:00;;;;;;;6.05;4.10;;;9.70;99.90;;;;;;5060730;28;20481;-81
2023/01/08 05:43:26;;;;;;;5.95;4.20;;;9.60;99.90;;;;;;5052043;28;20103;-81
2023/01/08 05:45:52;;;;;;;7.07;4.40;;;9.50;99.90;;;;;;5047443;28;20036;-81
2023/01/08 05:48:17;;;;;;;7.88;4.75;;;9.40;99.90;;;;;;5032276;28;20067;-81
2023/01/08 05:50:43;;;;;;;4.35;3.88;;;9.40;99.90;;;;;;5056968;28;20387;-81
2023/01/08 05:53:09;;;;;;;7.07;4.25;;;9.40;99.90;;;;;;5051867;28;20409;-81
2023/01/08 05:55:35;;;;;;;5.18;4.13;;;9.50;99.90;;;;;;5051794;28;20475;-81
2023/01/08 05:58:02;;;;;;;5.00;3.85;;;9.50;99.90;;;;;;5050631;28;20557;-81
2023/01/08 06:00:28;;;;;;;6.00;4.40;;;9.60;99.90;;;;;;5054887;28;20029;-81
2023/01/08 06:02:53;;;;;;;6.60;4.30;;;9.50;99.90;;;;;;5051920;28;20292;-81
2023/01/08 06:05:19;;;;;;;6.93;4.78;;;9.50;99.90;;;;;;5051933;28;20511;-81
2023/01/08 06:07:45;;;;;;;5.35;4.10;;;9.50;99.90;;;;;;5051575;28;20075;-81
2023/01/08 06:10:10;;;;;;;5.30;4.63;;;9.40;99.90;;;;;;5053865;28;20033;-81
2023/01/08 06:12:36;;;;;;;7.15;5.47;;;9.40;99.90;;;;;;5047102;28;20384;-82
2023/01/08 06:15:03;;;;;;;6.32;4.47;;;9.40;99.90;;;;;;5050123;28;20040;-81
2023/01/08 06:17:29;;;;;;;5.65;4.68;;;9.40;99.90;;;;;;5051206;28;20021;-81
2023/01/08 06:19:54;;;;;;;5.80;4.65;;;9.40;99.90;;;;;;5054599;28;20379;-81
2023/01/08 06:22:20;;;;;;;6.53;4.55;;;9.40;99.90;;;;;;5050341;28;20025;-81
2023/01/08 06:24:46;;;;;;;6.28;4.25;;;9.40;99.90;;;;;;5050936;28;20025;-81
2023/01/08 06:27:11;;;;;;;6.22;4.85;;;9.30;99.90;;;;;;5060189;28;20032;-81
2023/01/08 06:29:37;;;;;;;5.93;4.90;;;9.20;99.90;;;;;;5050811;28;20067;-83
2023/01/08 06:32:03;;;;;;;6.20;4.95;;;9.30;99.90;;;;;;5058892;28;20029;-82
2023/01/08 06:34:28;;;;;;;5.78;4.90;;;9.30;99.90;;;;;;5032784;28;20037;-82
2023/01/08 06:36:54;;;;;;;7.28;5.00;;;9.40;99.90;;;;;;5050106;28;20032;-81
2023/01/08 06:39:20;;;;;;;9.68;5.60;;;9.30;99.90;;;;;;5037967;28;20498;-81
2023/01/08 06:41:45;;;;;;;7.65;5.50;;;9.30;99.90;;;;;;5050873;28;20021;-82
2023/01/08 06:44:12;;;;;;;7.65;5.55;;;9.40;99.90;;;;;;5047701;28;20021;-82
2023/01/08 06:46:39;;;;;;;7.47;5.68;;;9.40;99.90;;;;;;5047081;28;20027;-81
2023/01/08 06:49:08;;;;;;;6.70;5.95;;;9.30;99.90;;;;;;5050831;28;20033;-82
2023/01/08 06:51:35;;;;;;;8.77;5.32;;;9.30;99.90;;;;;;5054038;28;20071;-82
2023/01/08 06:54:01;;;;;;;7.47;5.85;;;9.40;99.90;;;;;;5049902;28;20032;-82
2023/01/08 06:56:27;;;;;;;6.78;6.05;;;9.40;99.90;;;;;;5052249;28;20075;-82
2023/01/08 06:58:53;;;;;;;8.05;5.75;;;9.40;99.90;;;;;;5048007;28;20037;-82
2023/01/08 07:01:19;;;;;;;10.00;6.07;;;9.40;99.90;;;;;;5050771;28;20021;-82
2023/01/08 07:03:45;;;;;;;7.35;5.95;;;9.30;99.90;;;;;;5050602;28;20660;-82
2023/01/08 07:06:15;;;;;;;6.75;6.05;;;9.30;99.90;;;;;;5060481;28;20498;-82
2023/01/08 07:08:42;;;;;;;11.48;6.93;;;9.20;99.90;;;;;;5050990;28;20036;-82
2023/01/08 07:11:07;;;;;;;7.03;5.75;;;9.30;99.90;;;;;;5060731;28;20059;-82
2023/01/08 07:13:33;;;;;;;6.78;5.50;;;9.30;99.90;;;;;;5050831;28;20064;-82
2023/01/08 07:16:07;;;;;;;7.22;5.68;;;9.30;99.90;;;;;;5050673;28;20486;-82
2023/01/08 07:18:33;;;;;;;8.50;5.78;;;9.20;99.90;;;;;;5037524;28;20040;-82
2023/01/08 07:20:59;;;;;;;8.55;5.75;;;9.20;99.90;;;;;;5050071;28;20047;-82
2023/01/08 07:23:25;;;;;;;5.63;4.65;;;9.10;99.90;;;;;;5050102;28;20021;-82
2023/01/08 07:25:50;;;;;;;9.15;5.85;;;9.20;99.90;;;;;;5057644;28;20487;-82
2023/01/08 07:28:16;;;;;;;7.65;5.38;;;9.10;99.90;;;;;;5050397;28;20033;-82
2023/01/08 07:30:43;;;;;;;8.18;5.40;;;9.20;99.90;;;;;;5049400;28;20053;-82
2023/01/08 07:33:09;;;;;;;6.38;4.78;;;9.20;99.90;;;;;;5050177;28;20087;-82
2023/01/08 07:35:35;;;;;;;5.88;5.05;;;9.20;99.90;;;;;;5054646;28;20495;-82
2023/01/08 07:38:01;;;;;;;6.80;5.05;;;9.00;99.90;;;;;;5050898;28;20025;-82
2023/01/08 07:40:27;;;;;;;5.88;4.40;;;8.90;99.90;;;;;;5049979;28;20036;-83
2023/01/08 07:43:01;;;;;;;7.90;4.78;;;8.90;99.90;;;;;;5045847;28;20021;-82
2023/01/08 07:45:27;;;;;;;5.93;4.53;;;9.00;99.90;;;;;;5046240;28;20029;-82
2023/01/08 07:47:55;;;;;;;6.05;4.93;;;9.00;99.90;;;;;;5045920;28;20025;-82
2023/01/08 07:50:20;;;;;;;5.50;4.70;;;9.00;99.90;;;;;;5044236;28;20375;-82
2023/01/08 07:52:46;;;;;;;5.65;5.05;;;9.10;99.90;;;;;;5050587;28;20487;-82
2023/01/08 07:55:12;;;;;;;7.85;5.57;;;9.10;99.90;;;;;;5050878;28;20580;-82
2023/01/08 07:57:37;;;;;;;7.65;5.18;;;9.10;99.90;;;;;;5062774;28;20037;-82
2023/01/08 08:00:04;;;;;;;5.90;4.50;;;9.10;99.90;;;;;;5048769;28;20075;-82
2023/01/08 08:02:29;;;;;;;6.43;4.50;;;9.30;99.90;;;;;;5050061;28;20091;-82
2023/01/08 08:04:55;;;;;;;5.80;4.63;;;9.30;99.90;;;;;;5036687;28;20483;-82
2023/01/08 08:07:21;;;;;;;5.75;4.20;;;9.20;99.90;;;;;;5056529;28;20052;-82
2023/01/08 08:09:46;;;;;;;6.43;4.88;;;9.30;99.90;;;;;;5049864;28;20086;-82
2023/01/08 08:12:13;;;;;;;5.63;4.85;;;9.20;99.90;;;;;;5058395;28;20467;-82
2023/01/08 08:14:38;;;;;;;7.78;5.28;;;9.10;99.90;;;;;;5050006;28;20445;-82
2023/01/08 08:17:04;;;;;;;6.45;4.47;;;9.00;99.90;;;;;;5072500;28;20037;-82
2023/01/08 08:19:30;;;;;;;5.35;4.65;;;9.00;99.90;;;;;;5047324;28;20025;-80
2023/01/08 08:21:55;;;;;;;6.47;4.55;;;9.00;99.90;;;;;;5042990;28;20498;-81
2023/01/08 08:24:21;;;;;;;4.80;4.25;;;9.00;99.90;;;;;;5044043;28;20029;-81
2023/01/08 08:26:47;;;;;;;5.38;4.35;;;9.10;99.90;;;;;;5049899;28;20029;-81
2023/01/08 08:29:12;;;;;;;4.95;4.45;;;9.00;99.90;;;;;;5045724;28;20132;-81
2023/01/08 08:31:38;;;;;;;4.95;4.18;;;9.00;99.90;;;;;;5050541;28;20133;-81
2023/01/08 08:34:05;;;;;;;3.78;3.33;;;9.10;99.90;;;;;;5050088;28;20501;-81
2023/01/08 08:36:31;;;;;;;5.28;4.00;;;9.30;99.90;;;;;;5050369;28;20509;-81
2023/01/08 08:38:57;;;;;;;4.95;4.13;;;9.50;99.90;;;;;;5050630;28;20100;-81
2023/01/08 08:41:22;;;;;;;6.13;4.80;;;9.70;99.90;;;;;;5060628;28;20466;-81
2023/01/08 08:43:50;;;;;;;5.22;4.47;;;9.90;99.90;;;;;;5059021;28;20396;-81
2023/01/08 08:46:16;;;;;;;9.70;5.22;;;9.90;99.90;;;;;;5039649;28;20017;-81
2023/01/08 08:48:45;;;;;;;8.00;4.75;;;9.80;99.90;;;;;;5051997;28;20024;-81
2023/01/08 08:51:11;;;;;;;7.18;4.78;;;9.90;99.90;;;;;;5056945;28;20040;-81
2023/01/08 08:53:36;;;;;;;6.40;4.55;;;9.90;99.90;;;;;;5052249;28;20036;-81
2023/01/08 08:56:02;;;;;;;7.95;4.60;;;9.80;99.90;;;;;;5051197;28;20025;-81
2023/01/08 08:58:28;;;;;;;5.82;4.38;;;9.60;99.90;;;;;;5050432;28;20486;-82
2023/01/08 09:00:54;;;;;;;6.78;4.22;;;9.60;99.90;;;;;;5052139;28;20025;-82
2023/01/08 09:03:19;;;;;;;7.82;5.28;;;9.60;99.90;;;;;;5049030;28;20025;-81
2023/01/08 09:05:45;;;;;;;5.07;4.57;;;9.40;99.90;;;;;;5050883;28;20021;-81
2023/01/08 09:08:11;;;;;;;6.15;5.00;;;9.50;99.90;;;;;;5050069;28;20049;-81
2023/01/08 09:10:41;;;;;;;7.53;5.82;;;9.60;99.90;;;;;;5042282;28;20113;-81
2023/01/08 09:13:06;;;;;;;6.15;4.85;;;9.70;99.90;;;;;;5048968;28;20035;-81
2023/01/08 09:15:32;;;;;;;6.25;4.57;;;9.70;99.90;;;;;;5039922;28;20033;-81
2023/01/08 09:17:58;;;;;;;5.90;4.85;;;9.70;99.90;;;;;;5079937;28;20039;-81
2023/01/08 09:20:25;;;;;;;8.05;4.30;;;9.70;99.90;;;;;;5052264;28;20020;-81
2023/01/08 09:22:52;;;;;;;7.55;4.97;;;9.70;99.90;;;;;;5050828;28;20474;-81
2023/01/08 09:25:17;;;;;;;5.72;4.50;;;9.70;99.90;;;;;;5050911;28;20029;-81
2023/01/08 09:27:43;;;;;;;12.43;5.97;;;9.60;99.90;;;;;;5051109;28;20557;-81
2023/01/08 09:30:09;;;;;;;6.70;5.55;;;9.60;99.90;;;;;;5050271;28;20052;-81
2023/01/08 09:32:37;;;;;;;5.65;5.07;;;9.70;99.90;;;;;;5047580;28;20050;-81
2023/01/08 09:35:04;;;;;;;5.88;4.47;;;9.70;99.90;;;;;;5032026;28;20045;-81
2023/01/08 09:37:29;;;;;;;6.07;5.20;;;9.60;99.90;;;;;;5054264;28;20404;-81
2023/01/08 09:39:55;;;;;;;6.97;5.93;;;9.60;99.90;;;;;;5043643;28;20075;-82
2023/01/08 09:42:25;;;;;;;7.78;5.15;;;9.60;99.90;;;;;;5056339;28;20498;-82
2023/01/08 09:44:54;;;;;;;5.88;4.63;;;9.70;99.90;;;;;;5051352;28;20017;-81
2023/01/08 09:47:22;;;;;;;6.90;5.22;;;9.80;99.90;;;;;;5052107;28;20071;-82
2023/01/08 09:49:51;;;;;;;8.95;5.63;;;9.90;99.90;;;;;;5046834;28;20029;-82
2023/01/08 09:52:17;;;;;;;7.53;5.03;;;10.00;99.90;;;;;;5055049;28;20098;-82
2023/01/08 09:54:43;;;;;;;5.93;4.72;;;10.10;99.90;;;;;;5051615;28;20502;-82
2023/01/08 09:57:15;;;;;;;7.47;5.60;;;10.10;99.90;;;;;;5050597;28;20029;-82
2023/01/08 09:59:42;;;;;;;7.57;5.35;;;10.20;99.90;;;;;;5045775;28;20577;-82
2023/01/08 10:02:28;;;;;;;7.07;5.35;;;10.20;99.90;;;;;;5050943;28;20052;-82
2023/01/08 10:04:57;;;;;;;7.32;4.88;;;10.40;99.90;;;;;;5048580;28;20024;-82
2023/01/08 10:07:29;;;;;;;6.57;5.20;;;10.30;99.90;;;;;;5052677;28;20021;-83
2023/01/08 10:09:55;;;;;;;6.25;5.55;;;10.30;99.90;;;;;;5048440;28;20017;-82
2023/01/08 10:12:28;;;;;;;8.18;5.93;;;10.30;99.90;;;;;;5044402;28;20035;-82
2023/01/08 10:14:59;;;;;;;7.80;6.38;;;10.20;99.90;;;;;;5051704;28;20040;-82
2023/01/08 10:17:38;;;;;;;8.25;6.38;;;10.20;99.90;;;;;;5050602;28;20141;-82
2023/01/08 10:20:18;;;;;;;8.13;5.97;;;10.20;99.90;;;;;;5049517;28;20021;-81
2023/01/08 10:22:46;;;;;;;9.90;5.88;;;10.10;99.90;;;;;;5051234;28;20025;-81
2023/01/08 10:25:33;;;;;;;7.75;6.32;;;10.10;99.90;;;;;;5046758;28;20071;-81
2023/01/08 10:28:01;;;;;;;8.27;6.70;;;10.10;99.90;;;;;;5043117;28;20100;-81
2023/01/08 10:30:29;;;;;;;8.38;6.50;;;10.10;99.90;;;;;;5045344;28;20049;-81
2023/01/08 10:33:01;;;;;;;8.45;6.25;;;10.10;99.90;;;;;;5049351;28;20060;-81
2023/01/08 10:35:36;;;;;;;6.90;5.40;;;10.10;99.90;;;;;;5049906;28;20025;-81
2023/01/08 10:38:02;;;;;;;7.57;5.90;;;10.10;99.90;;;;;;5051139;28;20055;-81
2023/01/08 10:40:31;;;;;;;8.90;6.03;;;10.10;99.90;;;;;;5056495;28;20032;-81
2023/01/08 10:43:07;;;;;;;8.23;5.72;;;10.10;99.90;;;;;;5048921;28;20032;-81
2023/01/08 10:45:32;;;;;;;8.32;5.70;;;10.10;99.90;;;;;;5043490;28;20063;-81
2023/01/08 10:48:00;;;;;;;7.57;5.68;;;10.10;99.90;;;;;;5032385;28;20053;-81
2023/01/08 10:50:32;;;;;;;10.95;5.60;;;10.10;99.90;;;;;;5035188;28;20043;-81
2023/01/08 10:53:05;;;;;;;6.65;5.30;;;10.20;99.90;;;;;;5050083;28;20047;-81
2023/01/08 10:55:37;;;;;;;8.95;5.53;;;10.10;99.90;;;;;;5060606;28;20032;-81
2023/01/08 10:58:09;;;;;;;6.65;5.40;;;10.20;99.90;;;;;;5050553;28;20025;-81
2023/01/08 11:00:36;;;;;;;7.63;5.22;;;10.30;99.90;;;;;;5047246;28;20029;-81
2023/01/08 11:03:05;;;;;;;7.72;5.30;;;10.30;99.90;;;;;;5049566;28;20028;-81
2023/01/08 11:05:36;;;;;;;7.25;5.05;;;10.30;99.90;;;;;;5049206;28;20017;-81
2023/01/08 11:08:07;;;;;;;10.88;5.50;;;10.20;99.90;;;;;;5050429;28;20021;-81
2023/01/08 11:10:35;;;;;;;6.93;5.63;;;10.30;99.90;;;;;;5050828;28;20548;-81
2023/01/08 11:13:05;;;;;;;7.47;6.07;;;10.30;99.90;;;;;;5049318;28;20036;-81
2023/01/08 11:15:39;;;;;;;5.60;5.00;;;10.30;99.90;;;;;;5054608;28;20021;-81
2023/01/08 11:18:16;;;;;;;5.63;4.93;;;10.40;99.90;;;;;;5051380;28;20036;-81
2023/01/08 11:20:43;;;;;;;10.38;5.93;;;10.50;99.90;;;;;;5049725;28;20087;-81
2023/01/08 11:23:21;;;;;;;8.95;6.43;;;10.40;99.90;;;;;;5043411;28;20056;-81
2023/01/08 11:26:09;;;;;;;7.30;6.10;;;10.50;99.90;;;;;;5041912;28;20048;-81
2023/01/08 11:28:58;;;;;;;8.23;6.40;;;10.50;99.90;;;;;;5030471;28;20029;-81
2023/01/08 11:31:40;;;;;;;9.95;6.25;;;10.60;99.90;;;;;;5038353;28;20029;-81
2023/01/08 11:34:31;;;;;;;8.90;7.00;;;10.60;99.90;;;;;;5034963;28;20052;-81
2023/01/08 11:37:35;;;;;;;8.60;6.60;;;10.60;99.90;;;;;;5030797;28;20154;-81
2023/01/08 11:40:01;;;;;;;8.07;6.70;;;10.70;99.90;;;;;;5033076;28;20040;-81
2023/01/08 11:42:54;;;;;;;11.95;7.13;;;10.60;99.90;;;;;;5056012;28;20048;-81
2023/01/08 11:45:48;;;;;;;11.00;7.25;;;10.40;99.90;;;;;;5038345;28;20025;-81
2023/01/08 11:48:14;;;;;;;10.55;7.38;;;10.40;99.90;;;;;;5047049;28;20044;-81
2023/01/08 11:50:54;;;;;;;10.43;7.47;;;10.40;99.90;;;;;;5057780;28;20020;-81
2023/01/08 11:53:30;;;;;;;9.77;7.25;;;10.40;99.90;;;;;;5054742;28;20056;-81
2023/01/08 11:56:01;;;;;;;12.38;7.82;;;10.40;99.90;;;;;;5042664;28;20174;-81
2023/01/08 11:58:33;;;;;;;10.93;7.07;;;10.40;99.90;;;;;;5045144;28;20032;-81
2023/01/08 12:02:00;;;;;;;12.85;8.65;;;10.40;99.90;;;;;;5024843;28;20032;-81
2023/01/08 12:04:36;;;;;;;9.65;8.52;;;10.40;99.90;;;;;;4976753;28;20042;-81
2023/01/08 12:07:10;;;;;;;12.15;9.45;;;10.40;99.90;;;;;;4992152;28;20050;-81
2023/01/08 12:09:44;;;;;;;14.40;10.40;;;10.40;99.90;;;;;;4945017;28;20077;-82
2023/01/08 12:12:28;;;;;;;12.55;9.40;;;10.40;99.90;;;;;;4960870;28;20038;-82
2023/01/08 12:15:10;;;;;;;12.48;9.48;;;10.50;99.90;;;;;;4959125;28;20051;-81
2023/01/08 12:18:01;;;;;;;10.88;8.73;;;10.50;99.90;;;;;;4965877;28;20073;-81
2023/01/08 12:20:49;;;;;;;9.63;8.23;;;10.50;99.90;;;;;;4960921;28;20145;-80
2023/01/08 12:24:05;;;;;;;11.35;8.15;;;10.50;99.90;;;;;;4951644;28;20034;-80
2023/01/08 12:27:12;;;;;;;9.93;7.78;;;10.50;99.90;;;;;;4916998;29;20040;-80
2023/01/08 12:30:05;;;;;;;12.32;8.32;;;10.40;99.90;;;;;;4913886;29;20641;-80
2023/01/08 12:32:48;;;;;;;9.65;7.38;;;10.60;99.90;;;;;;4932403;29;20086;-80
2023/01/08 12:35:23;;;;;;;8.90;7.30;;;10.70;99.90;;;;;;4932345;29;20030;-80
2023/01/08 12:38:11;;;;;;;7.75;6.75;;;10.70;99.90;;;;;;4931866;29;20092;-80
2023/01/08 12:40:50;;;;;;;8.27;6.53;;;10.70;99.90;;;;;;4964580;28;20562;-80
2023/01/08 12:43:28;;;;;;;10.05;7.22;;;10.70;99.90;;;;;;5010169;28;20065;-80
2023/01/08 12:45:58;;;;;;;9.50;7.05;;;10.80;99.90;;;;;;5009410;28;20227;-80
2023/01/08 12:48:29;;;;;;;6.82;6.13;;;10.90;99.90;;;;;;4993468;28;20605;-80
2023/01/08 12:51:23;;;;;;;8.63;6.28;;;11.00;99.90;;;;;;5009010;28;20034;-80
2023/01/08 12:54:03;;;;;;;8.38;5.72;;;11.10;99.90;;;;;;5009462;28;20042;-80
2023/01/08 12:56:41;;;;;;;9.32;6.88;;;11.10;99.90;;;;;;5009100;28;20050;-80
2023/01/08 12:59:37;;;;;;;8.73;6.38;;;11.10;99.90;;;;;;5009518;28;20034;-80
2023/01/08 13:02:12;;;;;;;8.23;6.47;;;11.10;99.90;;;;;;5011304;28;20033;-80
2023/01/08 13:04:43;;;;;;;9.05;6.43;;;11.10;99.90;;;;;;5065844;28;20068;-80
2023/01/08 13:07:22;;;;;;;7.63;5.95;;;11.10;99.90;;;;;;5044520;28;20021;-80